Página principal
METAR-TAF:

METAR-TAF

Aeroportos :

Aeroporto de Santa Maria

Santa Maria, Açores, Portugal

latitude: 36-58N, longitude: 025-10W, altura: 100 m

Observação actual do tempo

O boletim foi feito há 44 minutos, às 10:30 UTC
Vento 14 kt de nordeste
Temperatura 18°C
Humidade 83%
Pressão 1029 hPa
Visibilidade 10 km ou mais
Poucas nuvensa uma altura de 1400 ft
Nuvens dispersasa uma altura de 2000 ft
Nuvens fragmentadasa uma altura de 4200 ft

METAR: LPAZ 071030Z 05014KT 9999 FEW014 SCT020 BKN042 18/15 Q1029

Hora: 11:14 (11:14 UTC)

Previsão

O boletim foi feito há 6 horas e 14 minutos, às 05:00 UTC
Previsão válida de 07 às 06 UTC a 08 às 12 UTC
Vento 12 kt de es-nordeste
Visibilidade 10 km ou mais
Nuvens dispersasa uma altura de 1600 ft
Nuvens fragmentadasa uma altura de 3500 ft

TAF: LPAZ 070500Z 0706/0812 06012KT 9999 SCT016 BKN035

Observações e previsões do tempo de mais de 4000 aeroportos (mensagens METAR e TAF).

As estações disponíveis são os pontos amarelos e vermelhos sobre o mapa.

Mova o rato sobre o mapa para ver o nome da estação.

Depois clique no ponto para visualizar as observações e previsões meteorológicas.

Para alterar o mapa : clique nos botões verdes com uma cruz preta para aumentar o zoom; no botão verde com uma pitada de zoom; ou nas setas verdes para mapas adjacentes.


METAR-TAF: